Time;durP1;ratioP1;P1;durP2;ratioP2;P2;SDS_P1;SDS_P2;PMS_P1;PMS_P2;Temp;Humidity;BMP_temperature;BMP_pressure;BME280_temperature;BME280_humidity;BME280_pressure;Samples;Min_cycle;Max_cycle;Signal;HPM_P1;HPM_P2
2022/02/14 00:02:16;;;;;;;11.30;8.10;;;;;;;8.25;55.06;99945.16;5062672;28;20171;-69
2022/02/14 00:04:42;;;;;;;12.30;7.20;;;;;;;8.39;54.64;99959.97;5061573;28;20166;-69
2022/02/14 00:07:07;;;;;;;9.13;7.60;;;;;;;8.92;53.42;99937.72;5061745;28;20475;-71
2022/02/14 00:09:33;;;;;;;8.67;7.50;;;;;;;8.59;53.88;99949.69;5062501;28;20401;-69
2022/02/14 00:11:58;;;;;;;10.97;6.97;;;;;;;8.31;54.99;99938.25;5061679;28;20173;-69
2022/02/14 00:14:24;;;;;;;8.77;7.07;;;;;;;8.14;54.81;99935.56;5061355;28;20241;-68
2022/02/14 00:16:49;;;;;;;9.37;7.67;;;;;;;8.63;54.47;99932.41;5062587;28;20442;-69
2022/02/14 00:19:14;;;;;;;10.90;6.90;;;;;;;8.28;54.88;99936.53;5061783;28;20228;-70
2022/02/14 00:21:40;;;;;;;9.80;7.13;;;;;;;8.61;54.35;99935.00;5061555;28;20193;-69
2022/02/14 00:24:09;;;;;;;9.00;7.20;;;;;;;8.03;55.36;99928.56;5062062;28;20162;-70
2022/02/14 00:26:36;;;;;;;8.53;7.27;;;;;;;8.19;55.00;99923.50;5061691;28;20185;-70
2022/02/14 00:29:01;;;;;;;10.80;7.20;;;;;;;8.35;54.98;99920.13;5060712;28;20445;-71
2022/02/14 00:31:27;;;;;;;12.37;7.70;;;;;;;8.63;54.22;99915.06;5061514;28;20396;-69
2022/02/14 00:33:52;;;;;;;7.00;6.33;;;;;;;8.29;55.11;99912.28;5061837;28;20202;-69
2022/02/14 00:36:17;;;;;;;9.83;7.07;;;;;;;8.52;54.67;99906.38;5061465;28;20174;-69
2022/02/14 00:38:43;;;;;;;7.87;7.07;;;;;;;8.30;55.44;99901.03;5061822;28;20170;-68
2022/02/14 00:41:08;;;;;;;8.33;7.40;;;;;;;8.24;55.02;99899.28;5060089;28;20173;-69
2022/02/14 00:43:34;;;;;;;9.83;7.40;;;;;;;8.17;55.29;99899.22;5060628;28;20439;-68
2022/02/14 00:45:59;;;;;;;7.30;6.60;;;;;;;8.39;55.27;99895.91;5061426;28;20542;-69
2022/02/14 00:48:24;;;;;;;7.10;6.40;;;;;;;8.11;55.38;99894.03;5060877;28;20170;-69
2022/02/14 00:50:50;;;;;;;11.40;7.17;;;;;;;8.56;54.79;99882.13;5060597;28;20281;-67
2022/02/14 00:53:15;;;;;;;10.87;6.70;;;;;;;8.59;54.49;99874.34;5060867;28;20196;-66
2022/02/14 00:55:41;;;;;;;9.40;7.17;;;;;;;8.80;53.91;99878.75;5060790;28;20203;-67
2022/02/14 00:58:06;;;;;;;7.50;6.70;;;;;;;8.47;54.52;99870.00;5059939;28;20180;-66
2022/02/14 01:00:31;;;;;;;8.10;6.77;;;;;;;8.23;55.17;99874.16;5062643;28;20181;-67
2022/02/14 01:02:57;;;;;;;7.90;7.10;;;;;;;8.55;54.84;99870.00;5062704;28;20170;-68
2022/02/14 01:05:22;;;;;;;7.33;6.60;;;;;;;8.58;54.54;99870.03;5060788;28;20604;-67
2022/02/14 01:07:47;;;;;;;13.43;7.30;;;;;;;8.51;54.38;99848.38;5060805;28;20184;-66
2022/02/14 01:10:13;;;;;;;7.83;7.13;;;;;;;8.62;54.39;99860.50;5059607;28;20173;-67
2022/02/14 01:12:39;;;;;;;10.50;7.53;;;;;;;8.27;55.38;99857.75;5060347;28;20184;-66
2022/02/14 01:15:05;;;;;;;8.50;6.80;;;;;;;8.84;53.42;99862.31;5060497;28;20440;-67
2022/02/14 01:17:33;;;;;;;8.43;6.90;;;;;;;8.40;54.52;99845.69;5060331;28;20494;-68
2022/02/14 01:19:59;;;;;;;7.40;6.70;;;;;;;8.30;54.50;99853.44;5060164;28;20390;-67
2022/02/14 01:22:25;;;;;;;9.17;6.43;;;;;;;8.51;54.39;99839.69;5059596;28;20429;-66
2022/02/14 01:24:50;;;;;;;7.10;6.40;;;;;;;8.72;53.91;99842.34;5059877;28;20431;-67
2022/02/14 01:27:15;;;;;;;10.03;6.50;;;;;;;8.53;54.44;99835.38;5059994;28;20170;-68
2022/02/14 01:29:41;;;;;;;10.20;8.03;;;;;;;8.19;54.60;99836.06;5060184;28;20200;-67
2022/02/14 01:32:06;;;;;;;7.50;6.80;;;;;;;8.57;54.13;99837.97;5059933;28;20269;-69
2022/02/14 01:34:32;;;;;;;7.57;6.77;;;;;;;8.77;53.59;99831.97;5058954;28;20262;-68
2022/02/14 01:36:57;;;;;;;6.60;5.90;;;;;;;10.56;56.20;99817.88;5059907;28;20177;-64
2022/02/14 01:39:22;;;;;;;11.20;6.50;;;;;;;10.22;50.41;99816.25;5059786;28;20191;-63
2022/02/14 08:33:19;;;;;;;5.20;4.50;;;;;;;11.97;49.92;99525.09;5836631;23;20492;-67
2022/02/14 08:35:45;;;;;;;6.60;4.70;;;;;;;11.05;49.77;99530.66;5000944;28;20470;-72
2022/02/14 08:38:11;;;;;;;4.90;4.37;;;;;;;10.97;50.63;99542.94;5001399;28;20183;-72
2022/02/14 08:40:37;;;;;;;9.83;4.53;;;;;;;11.05;50.49;99546.31;5001171;28;20458;-73
2022/02/14 08:43:03;;;;;;;8.40;4.70;;;;;;;10.93;50.84;99533.41;5000952;28;20175;-76
2022/02/14 08:45:30;;;;;;;5.37;4.77;;;;;;;10.95;51.31;99531.66;5001440;28;20742;-76
2022/02/14 08:47:55;;;;;;;6.20;5.00;;;;;;;10.87;51.27;99528.28;5000829;28;20418;-75
2022/02/14 08:50:21;;;;;;;6.53;4.57;;;;;;;10.83;51.69;99540.47;5001086;28;20532;-76
2022/02/14 08:52:47;;;;;;;9.53;5.97;;;;;;;11.05;51.31;99528.06;5001405;28;20167;-76
2022/02/14 08:55:14;;;;;;;7.77;4.90;;;;;;;10.82;51.81;99533.53;5000925;28;20203;-74
2022/02/14 08:57:40;;;;;;;7.73;4.87;;;;;;;11.12;51.06;99534.94;5000929;28;20816;-76
2022/02/14 09:00:07;;;;;;;10.77;4.80;;;;;;;10.98;51.63;99522.94;5001475;28;20378;-75
2022/02/14 09:02:32;;;;;;;6.40;4.73;;;;;;;11.07;51.18;99534.13;5000591;28;20172;-75
2022/02/14 09:04:58;;;;;;;5.03;4.60;;;;;;;10.81;51.87;99530.94;5000114;28;20754;-73
2022/02/14 09:07:23;;;;;;;6.60;4.97;;;;;;;10.98;51.74;99523.81;5000330;28;20171;-76
2022/02/14 09:09:48;;;;;;;7.60;4.53;;;;;;;11.15;51.36;99520.13;5000815;28;20172;-74
2022/02/14 09:12:14;;;;;;;7.27;4.83;;;;;;;11.33;51.09;99529.47;5000675;28;20183;-75
2022/02/14 09:14:39;;;;;;;9.23;4.20;;;;;;;11.27;51.01;99535.63;5000969;28;20257;-74
2022/02/14 09:17:05;;;;;;;6.13;4.73;;;;;;;12.51;48.77;99520.75;5000706;28;20464;-74
2022/02/14 09:19:30;;;;;;;8.40;4.57;;;;;;;14.46;44.11;99497.28;4983882;28;20173;-75
2022/02/14 09:21:56;;;;;;;5.50;4.27;;;;;;;14.53;44.03;99491.84;5001113;28;20206;-75
2022/02/14 09:24:21;;;;;;;7.10;4.40;;;;;;;13.81;44.49;99501.50;5000349;28;20457;-71
2022/02/14 09:26:46;;;;;;;4.40;4.00;;;;;;;12.91;46.88;99506.91;4983132;28;20222;-71
2022/02/14 09:29:13;;;;;;;4.50;4.10;;;;;;;12.58;47.92;99502.31;5000952;28;20164;-76
2022/02/14 09:31:39;;;;;;;5.90;4.43;;;;;;;12.72;47.76;99490.69;5000191;28;20254;-75
2022/02/14 09:34:05;;;;;;;5.80;5.30;;;;;;;12.76;47.63;99498.47;4966832;28;20830;-75
2022/02/14 09:36:30;;;;;;;9.40;5.00;;;;;;;12.88;47.69;99505.22;5000795;28;20174;-75
2022/02/14 09:38:56;;;;;;;6.87;5.10;;;;;;;13.02;47.64;99497.09;4983213;28;20415;-74
2022/02/14 09:41:21;;;;;;;6.07;4.90;;;;;;;13.18;46.77;99496.75;5000267;28;20164;-75
2022/02/14 09:43:47;;;;;;;4.77;4.33;;;;;;;13.56;46.72;99492.50;4983430;28;20164;-73
2022/02/14 09:46:13;;;;;;;6.47;4.17;;;;;;;14.62;43.90;99479.34;4999944;28;20180;-75
2022/02/14 09:48:40;;;;;;;6.93;4.60;;;;;;;13.90;45.40;99496.94;4982927;28;20473;-74
2022/02/14 09:51:06;;;;;;;5.33;4.17;;;;;;;14.51;44.06;99488.44;5000277;28;20426;-74
2022/02/14 09:53:32;;;;;;;5.53;4.20;;;;;;;15.53;42.52;99490.78;4999709;28;20422;-74
2022/02/14 09:55:58;;;;;;;7.03;4.47;;;;;;;16.92;39.57;99484.41;4983052;28;20186;-74
2022/02/14 09:58:23;;;;;;;6.03;4.13;;;;;;;16.20;40.57;99487.78;5000242;28;20257;-75
2022/02/14 10:00:49;;;;;;;5.40;4.63;;;;;;;15.20;42.14;99488.28;4999741;28;20414;-73
2022/02/14 10:03:20;;;;;;;4.57;4.00;;;;;;;15.01;42.85;99491.44;4999764;28;20215;-75
2022/02/14 10:05:50;;;;;;;6.33;4.20;;;;;;;15.59;41.50;99485.34;5000366;28;20195;-74
2022/02/14 10:08:30;;;;;;;5.67;4.20;;;;;;;16.76;39.78;99475.31;4999957;28;20434;-74
2022/02/14 10:11:16;;;;;;;5.67;4.20;;;;;;;17.41;38.40;99476.41;4999906;28;20658;-76
2022/02/14 10:13:42;;;;;;;10.43;4.00;;;;;;;17.98;38.05;99479.47;4999601;28;20524;-75
2022/02/14 10:16:10;;;;;;;5.80;4.23;;;;;;;16.39;39.79;99489.78;4999749;28;20819;-75
2022/02/14 10:18:36;;;;;;;4.73;4.20;;;;;;;16.55;39.88;99482.19;4982313;28;20422;-75
2022/02/14 10:21:23;;;;;;;5.50;4.10;;;;;;;17.44;38.61;99493.88;4999691;28;20423;-72
2022/02/14 10:24:10;;;;;;;7.40;4.13;;;;;;;17.67;38.10;99482.44;4983239;28;20454;-73
2022/02/14 10:26:40;;;;;;;5.73;4.30;;;;;;;17.04;38.83;99496.25;4999575;28;20477;-77
2022/02/14 10:29:15;;;;;;;6.27;3.90;;;;;;;17.13;39.05;99493.28;4982401;28;20441;-72
2022/02/14 10:31:48;;;;;;;4.77;4.30;;;;;;;16.78;40.27;99484.03;4999442;28;20418;-73
2022/02/14 10:34:14;;;;;;;7.40;4.20;;;;;;;16.76;40.67;99489.31;4999188;28;20894;-72
2022/02/14 10:36:42;;;;;;;6.00;4.00;;;;;;;17.20;39.83;99490.41;4999375;28;20422;-76
2022/02/14 10:39:12;;;;;;;4.60;4.20;;;;;;;17.96;38.03;99493.63;4999654;28;20414;-76
2022/02/14 10:41:41;;;;;;;5.60;4.70;;;;;;;18.19;37.87;99487.41;4999079;28;20506;-76
2022/02/14 10:44:13;;;;;;;9.50;4.53;;;;;;;18.07;37.49;99514.28;4999094;28;20422;-76
2022/02/14 10:46:39;;;;;;;4.77;4.33;;;;;;;17.78;38.52;99500.47;4998991;28;20419;-74
2022/02/14 10:49:04;;;;;;;5.60;4.23;;;;;;;17.94;38.42;99498.97;4999176;28;20434;-72
2022/02/14 10:51:30;;;;;;;4.50;4.10;;;;;;;17.62;39.06;99505.50;4982497;28;20411;-72
2022/02/14 10:53:57;;;;;;;8.70;4.70;;;;;;;17.11;39.87;99499.53;4981877;28;20286;-73
2022/02/14 10:56:24;;;;;;;6.20;4.77;;;;;;;17.71;38.89;99506.91;4999080;28;20299;-70
2022/02/14 10:59:10;;;;;;;6.90;4.50;;;;;;;18.06;38.61;99499.38;4999435;28;20844;-71
2022/02/14 11:01:37;;;;;;;5.67;4.50;;;;;;;17.88;38.26;99506.25;4999003;28;20414;-70
2022/02/14 11:04:02;;;;;;;5.13;4.00;;;;;;;17.04;40.18;99506.78;4998858;28;20457;-71
2022/02/14 11:06:27;;;;;;;4.90;4.40;;;;;;;18.39;38.19;99515.59;4998772;28;20427;-69
2022/02/14 11:08:53;;;;;;;6.73;4.97;;;;;;;17.36;39.46;99502.09;4982045;28;20191;-69
2022/02/14 11:11:20;;;;;;;4.90;4.37;;;;;;;16.97;40.89;99507.94;4982818;28;20267;-69
2022/02/14 11:13:45;;;;;;;5.13;4.40;;;;;;;16.97;40.89;99505.31;4981486;28;20203;-69
2022/02/14 11:16:11;;;;;;;5.83;4.70;;;;;;;16.57;41.62;99527.75;4998791;28;20433;-70
2022/02/14 11:18:40;;;;;;;6.77;4.80;;;;;;;15.46;44.33;99529.50;4982248;28;20451;-71
2022/02/14 11:21:07;;;;;;;4.80;4.40;;;;;;;15.30;44.77;99529.97;4981823;28;20172;-74
2022/02/14 11:23:44;;;;;;;6.43;4.90;;;;;;;15.32;45.05;99516.78;4999212;28;20669;-76
2022/02/14 11:26:18;;;;;;;6.00;4.83;;;;;;;14.85;45.80;99526.88;4981659;28;20569;-76
2022/02/14 11:28:49;;;;;;;9.60;5.10;;;;;;;15.33;45.38;99521.16;4997799;28;20506;-75
2022/02/14 11:31:17;;;;;;;10.10;4.83;;;;;;;14.69;46.73;99523.81;4981807;28;20537;-74
2022/02/14 11:33:56;;;;;;;7.50;5.53;;;;;;;14.76;46.84;99525.34;4998215;28;20469;-74
2022/02/14 11:36:23;;;;;;;5.80;4.60;;;;;;;14.29;47.82;99541.41;4998564;28;20533;-75
2022/02/14 11:38:52;;;;;;;4.53;4.13;;;;;;;14.21;48.71;99522.41;4998140;28;20422;-73
2022/02/14 11:41:33;;;;;;;4.83;4.00;;;;;;;14.83;47.29;99529.56;4981241;28;20438;-72
2022/02/14 11:44:11;;;;;;;5.30;4.80;;;;;;;14.46;48.09;99520.00;4998314;28;20498;-72
2022/02/14 11:46:40;;;;;;;6.17;4.20;;;;;;;15.11;46.81;99516.53;4998444;28;20485;-73
2022/02/14 11:49:16;;;;;;;4.50;4.10;;;;;;;14.79;47.51;99509.56;4998451;28;20677;-73
2022/02/14 11:51:53;;;;;;;8.90;4.07;;;;;;;15.03;46.88;99525.50;4998323;28;20449;-74
2022/02/14 11:54:33;;;;;;;6.70;4.70;;;;;;;14.92;47.42;99517.94;4998306;28;20846;-74
2022/02/14 11:57:49;;;;;;;6.33;5.20;;;;;;;15.57;46.00;99518.69;4998333;28;20450;-73
2022/02/14 12:00:23;;;;;;;7.00;4.47;;;;;;;15.42;46.46;99512.97;4982302;28;20441;-69
2022/02/14 12:02:59;;;;;;;5.30;4.27;;;;;;;16.04;45.18;99516.34;4998036;28;20429;-70
2022/02/14 12:05:56;;;;;;;5.43;4.30;;;;;;;15.35;46.29;99526.34;4998183;28;20513;-70
2022/02/14 12:08:22;;;;;;;6.40;5.27;;;;;;;15.28;47.21;99520.41;4998209;28;20501;-70
2022/02/14 12:10:55;;;;;;;5.93;4.27;;;;;;;14.86;47.92;99523.38;4981368;28;20828;-70
2022/02/14 12:13:22;;;;;;;8.33;5.23;;;;;;;14.89;48.00;99518.03;4997844;28;20186;-70
2022/02/14 12:21:31;;;;;;;6.30;4.60;;;;;;;14.41;49.67;99522.75;4998483;28;20523;-71
2022/02/14 12:24:12;;;;;;;4.93;4.50;;;;;;;14.41;49.74;99507.03;4998088;28;20489;-72
2022/02/14 12:26:38;;;;;;;6.13;5.40;;;;;;;13.95;50.75;99523.88;4998136;28;20413;-70
2022/02/14 12:31:52;;;;;;;12.73;5.00;;;;;;;14.38;50.08;99522.81;4984019;28;20566;-71
2022/02/14 12:34:37;;;;;;;7.43;4.90;;;;;;;14.85;49.09;99522.50;4997505;28;20500;-72
2022/02/14 12:37:05;;;;;;;5.60;5.00;;;;;;;14.01;51.23;99522.88;4998057;28;20426;-74
2022/02/14 12:39:39;;;;;;;5.93;4.77;;;;;;;14.06;51.14;99524.50;4998067;28;20455;-72
2022/02/14 12:42:19;;;;;;;7.20;4.80;;;;;;;14.08;51.05;99513.97;5001416;28;20405;-72
2022/02/14 12:44:45;;;;;;;6.57;4.60;;;;;;;14.23;50.71;99502.25;5001592;28;20521;-76
2022/02/14 12:47:12;;;;;;;5.10;4.60;;;;;;;14.42;50.45;99519.22;5001511;28;20506;-74
2022/02/14 12:49:40;;;;;;;8.53;4.43;;;;;;;14.37;50.80;99513.25;5001252;28;20545;-74
2022/02/14 12:52:14;;;;;;;6.90;4.53;;;;;;;14.62;50.46;99513.44;5000997;28;20456;-74
2022/02/14 12:54:50;;;;;;;4.40;4.00;;;;;;;13.47;52.81;99523.19;5001116;28;20481;-74
2022/02/14 12:57:16;;;;;;;4.97;4.00;;;;;;;13.96;52.03;99515.13;5001345;28;20410;-75
2022/02/14 12:59:41;;;;;;;5.10;4.23;;;;;;;13.57;52.85;99523.00;5002235;28;20397;-76
2022/02/14 13:02:06;;;;;;;4.83;4.40;;;;;;;13.95;52.06;99519.50;5001373;28;20457;-76
2022/02/14 13:04:32;;;;;;;5.87;5.07;;;;;;;13.64;52.69;99530.69;5001767;28;20206;-73
2022/02/14 13:06:57;;;;;;;5.73;4.97;;;;;;;14.08;51.59;99533.16;5001654;28;20187;-70
2022/02/14 13:09:34;;;;;;;5.50;4.80;;;;;;;13.59;52.78;99524.69;4994684;28;20172;-69
2022/02/14 13:12:00;;;;;;;6.90;5.00;;;;;;;13.48;53.35;99524.94;4983969;28;20238;-74
2022/02/14 13:14:33;;;;;;;5.60;4.57;;;;;;;13.54;53.33;99517.84;5000538;28;20819;-75
2022/02/14 13:17:00;;;;;;;6.10;5.03;;;;;;;13.89;52.61;99526.66;4995262;28;20402;-75
2022/02/14 13:19:25;;;;;;;6.50;5.10;;;;;;;13.72;53.17;99527.91;4981685;28;20427;-75
2022/02/14 13:21:51;;;;;;;5.53;5.03;;;;;;;13.77;53.17;99533.91;4982168;28;20408;-72
2022/02/14 13:24:21;;;;;;;6.67;5.03;;;;;;;13.12;54.71;99535.28;4981663;28;20172;-74
2022/02/14 13:26:46;;;;;;;4.87;4.43;;;;;;;13.60;53.64;99534.28;4963908;28;20179;-72
2022/02/14 13:29:12;;;;;;;7.27;4.53;;;;;;;13.51;54.02;99544.09;5000937;28;20414;-72
2022/02/14 13:31:37;;;;;;;6.00;4.73;;;;;;;13.58;53.89;99540.44;5000792;28;20191;-73
2022/02/14 13:34:07;;;;;;;6.20;4.27;;;;;;;13.76;53.52;99549.63;5000235;28;20219;-73
2022/02/14 13:36:34;;;;;;;8.07;5.07;;;;;;;13.47;54.68;99544.16;5000957;28;20214;-73
2022/02/14 13:39:00;;;;;;;6.33;5.10;;;;;;;13.67;54.65;99545.47;5000465;28;20404;-73
2022/02/14 13:41:28;;;;;;;7.20;5.50;;;;;;;13.26;55.86;99549.78;5000245;28;20789;-73
2022/02/14 13:43:53;;;;;;;6.00;5.00;;;;;;;13.32;56.01;99555.78;5000426;28;20237;-72
2022/02/14 13:46:27;;;;;;;5.20;4.70;;;;;;;13.11;56.75;99553.59;5000316;28;20515;-69
2022/02/14 13:48:52;;;;;;;6.43;4.93;;;;;;;13.50;56.57;99555.47;4996994;28;20449;-71
2022/02/14 13:51:21;;;;;;;5.70;5.10;;;;;;;13.36;58.16;99559.22;4999705;28;20407;-71
2022/02/14 13:53:57;;;;;;;5.97;5.23;;;;;;;13.32;58.47;99549.69;4999854;28;20471;-73
2022/02/14 13:56:23;;;;;;;5.80;5.30;;;;;;;13.71;56.90;99562.00;4999459;28;20477;-73
2022/02/14 13:58:52;;;;;;;5.50;5.00;;;;;;;13.43;58.52;99573.91;5000205;28;20411;-72
2022/02/14 14:01:22;;;;;;;6.57;5.77;;;;;;;12.87;61.17;99578.50;4999963;28;20595;-70
2022/02/14 14:03:49;;;;;;;5.80;5.30;;;;;;;12.43;64.43;99588.81;4999789;28;20397;-71
2022/02/14 14:06:27;;;;;;;7.07;5.73;;;;;;;12.41;65.48;99588.00;4999984;28;20407;-71
2022/02/14 14:08:53;;;;;;;6.53;5.90;;;;;;;12.10;68.01;99594.56;4999910;28;20405;-71
2022/02/14 14:11:32;;;;;;;7.23;6.40;;;;;;;12.08;68.42;99593.72;4999751;28;20418;-72
2022/02/14 14:13:57;;;;;;;6.30;5.80;;;;;;;12.38;68.27;99596.75;4999484;28;20458;-71
2022/02/14 14:16:23;;;;;;;6.97;6.37;;;;;;;12.27;68.55;99601.25;4999939;28;20415;-71
2022/02/14 14:18:48;;;;;;;7.53;6.83;;;;;;;12.59;67.76;99602.50;4999560;28;20559;-77
2022/02/14 14:21:14;;;;;;;7.30;6.60;;;;;;;12.30;68.90;99599.47;4999209;28;20179;-74
2022/02/14 14:23:40;;;;;;;7.67;6.37;;;;;;;12.43;67.78;99607.13;4999579;28;20168;-72
2022/02/14 14:26:07;;;;;;;7.30;6.70;;;;;;;12.88;67.11;99607.22;4999387;28;20422;-73
2022/02/14 14:28:35;;;;;;;7.70;6.30;;;;;;;12.87;66.48;99607.28;4999539;28;20440;-74
2022/02/14 14:31:01;;;;;;;7.00;6.40;;;;;;;12.34;67.01;99608.16;4999156;28;20422;-72
2022/02/14 14:33:26;;;;;;;8.80;6.67;;;;;;;12.33;67.51;99606.41;4998930;28;20438;-75
2022/02/14 14:35:51;;;;;;;7.67;6.30;;;;;;;12.23;66.85;99616.16;4999020;28;20211;-75
2022/02/14 14:38:19;;;;;;;7.10;6.47;;;;;;;12.53;66.67;99611.31;4999371;28;20168;-75
2022/02/14 14:40:44;;;;;;;6.17;5.60;;;;;;;12.08;66.53;99611.13;4999143;28;20175;-76
2022/02/14 14:43:09;;;;;;;6.30;5.80;;;;;;;12.12;66.61;99615.44;4999088;28;20691;-74
2022/02/14 14:45:34;;;;;;;6.73;6.13;;;;;;;12.46;65.38;99620.13;4999331;28;20194;-75
2022/02/14 14:48:01;;;;;;;6.40;5.83;;;;;;;12.38;64.67;99620.28;4998562;28;20183;-75
2022/02/14 14:50:26;;;;;;;7.20;5.50;;;;;;;12.68;64.45;99623.28;4998709;28;20309;-73
2022/02/14 14:52:53;;;;;;;6.20;5.60;;;;;;;12.71;63.86;99614.50;4999277;28;20510;-74
2022/02/14 14:55:18;;;;;;;5.90;5.40;;;;;;;12.58;62.52;99616.47;4998821;28;20211;-75
2022/02/14 14:57:43;;;;;;;7.60;6.90;;;;;;;12.68;62.23;99611.94;4981767;28;20588;-74
2022/02/14 15:00:09;;;;;;;5.53;5.03;;;;;;;12.25;61.71;99618.75;4999227;28;20171;-74
2022/02/14 15:02:35;;;;;;;5.03;4.63;;;;;;;12.49;60.32;99616.59;4998588;28;20182;-71
2022/02/14 15:05:01;;;;;;;4.60;4.20;;;;;;;12.69;60.22;99622.38;4998409;28;20171;-72
2022/02/14 15:07:26;;;;;;;4.23;3.90;;;;;;;12.76;59.57;99625.75;4999076;28;20771;-73
2022/02/14 15:09:52;;;;;;;3.93;3.63;;;;;;;12.24;60.42;99625.69;4981756;28;20180;-71
2022/02/14 15:12:19;;;;;;;4.10;3.80;;;;;;;12.60;60.05;99623.38;4998581;28;20254;-72
2022/02/14 15:14:44;;;;;;;4.93;4.50;;;;;;;12.91;59.22;99622.00;4998781;28;20446;-71
2022/02/14 15:17:10;;;;;;;4.80;4.40;;;;;;;12.73;58.64;99624.06;4998672;28;20419;-74
2022/02/14 15:19:37;;;;;;;4.87;4.50;;;;;;;13.50;57.59;99619.16;4998430;28;20442;-73
2022/02/14 15:22:04;;;;;;;6.47;5.73;;;;;;;13.05;57.67;99625.22;4998520;28;20171;-75
2022/02/14 15:24:30;;;;;;;5.33;4.83;;;;;;;13.40;56.63;99631.56;4999008;28;20842;-75
2022/02/14 15:26:55;;;;;;;8.83;7.83;;;;;;;13.13;57.05;99620.69;4998845;28;20452;-75
2022/02/14 15:29:20;;;;;;;4.27;3.87;;;;;;;13.11;56.57;99632.97;4998954;28;20256;-75
2022/02/14 15:31:46;;;;;;;4.30;3.90;;;;;;;13.03;56.72;99629.63;4998253;28;20417;-74
2022/02/14 15:34:12;;;;;;;3.80;3.50;;;;;;;13.24;56.12;99641.44;4997791;28;20601;-71
2022/02/14 15:36:39;;;;;;;3.37;3.07;;;;;;;12.69;56.38;99648.53;4998658;28;20178;-72
2022/02/14 15:39:05;;;;;;;3.50;3.20;;;;;;;12.72;56.54;99640.63;4997925;28;20194;-71
2022/02/14 15:41:30;;;;;;;3.40;3.07;;;;;;;12.77;56.77;99640.53;4998071;28;20771;-72
2022/02/14 15:43:55;;;;;;;3.43;3.13;;;;;;;12.76;55.96;99658.00;4998554;28;20175;-74
2022/02/14 15:46:22;;;;;;;3.87;3.50;;;;;;;12.29;55.76;99649.16;4998132;28;20183;-75
2022/02/14 15:48:48;;;;;;;4.07;3.67;;;;;;;12.56;55.14;99657.47;4998271;28;20258;-76
2022/02/14 15:51:15;;;;;;;3.50;3.20;;;;;;;11.90;56.73;99652.28;4998613;28;20442;-74
2022/02/14 15:53:40;;;;;;;4.00;3.60;;;;;;;11.92;56.66;99660.97;4998141;28;20186;-75
2022/02/14 15:56:05;;;;;;;3.10;2.90;;;;;;;11.91;56.79;99663.59;4981054;28;20412;-75
2022/02/14 15:58:31;;;;;;;3.53;3.23;;;;;;;12.08;56.31;99666.88;4998517;28;20176;-74
2022/02/14 16:00:57;;;;;;;4.40;3.20;;;;;;;12.03;56.44;99667.81;4998015;28;20423;-71
2022/02/14 16:03:22;;;;;;;3.30;3.00;;;;;;;12.12;56.54;99668.56;4997832;28;20176;-70
2022/02/14 16:05:47;;;;;;;3.80;3.50;;;;;;;11.83;57.04;99668.91;4998187;28;20172;-75
2022/02/14 16:08:13;;;;;;;3.27;2.97;;;;;;;11.98;57.12;99680.09;4998189;28;20183;-71
2022/02/14 16:10:39;;;;;;;3.93;3.20;;;;;;;12.06;57.20;99689.53;4998042;28;20180;-73
2022/02/14 16:13:05;;;;;;;3.30;3.00;;;;;;;11.78;57.53;99704.66;4997990;28;20164;-74
2022/02/14 16:15:30;;;;;;;4.23;3.83;;;;;;;12.09;57.07;99704.31;4999785;28;20458;-76
2022/02/14 16:17:55;;;;;;;5.47;4.83;;;;;;;12.07;56.90;99693.00;5001480;28;20540;-71
2022/02/14 16:20:21;;;;;;;3.70;3.40;;;;;;;12.15;57.15;99699.00;5002192;28;20172;-71
2022/02/14 16:22:49;;;;;;;4.40;4.00;;;;;;;12.13;57.04;99699.00;5001703;28;20560;-74
2022/02/14 16:25:15;;;;;;;6.80;3.60;;;;;;;11.80;57.88;99713.34;5001759;28;20569;-71
2022/02/14 16:27:41;;;;;;;4.10;3.70;;;;;;;11.84;57.57;99715.03;5001911;28;20436;-72
2022/02/14 16:30:08;;;;;;;6.70;5.00;;;;;;;11.71;57.67;99711.69;5001260;28;20422;-70
2022/02/14 16:32:33;;;;;;;4.13;3.73;;;;;;;11.52;58.53;99721.47;5001073;28;20394;-71
2022/02/14 16:34:59;;;;;;;4.60;4.20;;;;;;;11.75;57.87;99726.44;5001223;28;20232;-72
2022/02/14 16:37:26;;;;;;;4.17;3.77;;;;;;;11.62;58.36;99735.28;5001408;28;20179;-71
2022/02/14 16:39:55;;;;;;;5.03;4.60;;;;;;;11.48;58.49;99742.44;5001418;28;20176;-71
2022/02/14 16:42:21;;;;;;;6.30;5.10;;;;;;;11.59;58.10;99736.19;5001164;28;20458;-71
2022/02/14 16:44:46;;;;;;;5.43;4.43;;;;;;;11.51;58.40;99738.00;5001125;28;20389;-70
2022/02/14 16:47:12;;;;;;;7.70;5.70;;;;;;;11.45;58.34;99744.16;5000544;28;20438;-70
2022/02/14 16:49:57;;;;;;;8.40;5.50;;;;;;;11.71;58.06;99739.56;5000812;28;20409;-75
2022/02/14 16:52:28;;;;;;;5.17;4.63;;;;;;;11.53;58.28;99744.09;5001141;28;20394;-73
2022/02/14 16:54:54;;;;;;;7.40;5.50;;;;;;;13.89;62.57;99744.97;4998619;28;20797;-55
2022/02/14 16:57:21;;;;;;;5.87;4.47;;;;;;;14.45;55.29;99743.78;5000613;28;20396;-58
2022/02/14 16:59:47;;;;;;;4.30;3.90;;;;;;;15.12;52.32;99735.25;5000524;28;20488;-55
2022/02/14 17:02:12;;;;;;;4.57;4.13;;;;;;;15.64;49.99;99731.25;5000833;28;20495;-53
2022/02/14 17:04:38;;;;;;;4.40;4.00;;;;;;;15.55;51.17;99738.53;4999508;28;20184;-57
2022/02/14 17:07:04;;;;;;;5.17;4.47;;;;;;;15.60;49.24;99741.88;5000682;28;20179;-59
2022/02/14 17:09:29;;;;;;;4.10;3.80;;;;;;;15.72;48.42;99741.56;5000210;28;20191;-58
2022/02/14 17:11:55;;;;;;;5.00;4.60;;;;;;;15.05;49.56;99746.81;4999988;28;20431;-59
2022/02/14 17:14:20;;;;;;;4.70;4.00;;;;;;;13.12;52.53;99747.22;5000684;28;20635;-74
2022/02/14 17:16:46;;;;;;;5.13;4.10;;;;;;;12.40;54.44;99757.00;4983362;28;20204;-74
2022/02/14 17:19:12;;;;;;;4.80;4.30;;;;;;;11.98;55.84;99759.31;4999907;28;20240;-76
2022/02/14 17:21:38;;;;;;;5.27;4.70;;;;;;;11.57;57.03;99768.44;5000525;28;20199;-75
2022/02/14 17:24:06;;;;;;;4.30;3.90;;;;;;;11.44;57.68;99768.53;5000111;28;20871;-76
2022/02/14 17:26:32;;;;;;;4.60;4.20;;;;;;;11.10;58.57;99771.44;4993924;28;20575;-75
2022/02/14 17:28:58;;;;;;;5.13;4.57;;;;;;;11.31;58.29;99777.34;5000087;28;20496;-77
2022/02/14 17:31:23;;;;;;;3.90;3.60;;;;;;;10.98;58.74;99768.94;4999719;28;20443;-76
2022/02/14 17:33:49;;;;;;;5.10;4.60;;;;;;;10.77;59.61;99770.84;4999200;28;20227;-75
2022/02/14 17:36:14;;;;;;;4.30;3.90;;;;;;;10.75;59.83;99767.34;4983164;28;20533;-75
2022/02/14 17:38:39;;;;;;;4.10;3.70;;;;;;;10.81;60.00;99778.63;5000587;28;20230;-73
2022/02/14 17:41:05;;;;;;;6.23;4.20;;;;;;;10.82;59.62;99778.59;4999493;28;20188;-74
2022/02/14 17:43:30;;;;;;;4.83;4.17;;;;;;;10.88;59.34;99782.91;5000441;28;20594;-76
2022/02/14 17:45:55;;;;;;;4.63;4.23;;;;;;;11.09;59.10;99785.34;5000035;28;20194;-72
2022/02/14 17:48:21;;;;;;;4.30;3.90;;;;;;;10.81;59.57;99786.44;4999955;28;20168;-77
2022/02/14 17:50:46;;;;;;;6.10;4.17;;;;;;;10.62;59.54;99776.13;5000578;28;20171;-76
2022/02/14 17:53:11;;;;;;;5.13;4.30;;;;;;;10.77;60.10;99788.19;5000085;28;20487;-76
2022/02/14 17:55:37;;;;;;;5.23;4.73;;;;;;;10.78;59.36;99785.59;5000335;28;20243;-77
2022/02/14 17:58:02;;;;;;;5.47;4.90;;;;;;;10.77;58.93;99785.59;5000638;28;20178;-77
2022/02/14 18:00:27;;;;;;;6.87;4.20;;;;;;;10.50;59.79;99787.50;5000486;28;20203;-77
2022/02/14 18:02:53;;;;;;;5.33;4.83;;;;;;;11.08;58.69;99775.81;5000141;28;20180;-77
2022/02/14 18:05:19;;;;;;;7.47;5.30;;;;;;;10.99;59.22;99781.09;4998586;28;20544;-74
2022/02/14 18:07:46;;;;;;;7.43;6.10;;;;;;;11.19;59.18;99790.50;4998190;28;20435;-74
2022/02/14 18:10:12;;;;;;;9.33;7.43;;;;;;;10.90;59.83;99784.63;4982313;28;20190;-73
2022/02/14 18:12:37;;;;;;;7.30;5.80;;;;;;;11.20;59.33;99793.09;4982338;28;20426;-73
2022/02/14 18:15:03;;;;;;;7.00;5.00;;;;;;;10.60;61.00;99796.13;4999371;28;20747;-74
2022/02/14 18:17:29;;;;;;;5.47;4.97;;;;;;;10.67;60.60;99794.38;4998916;28;20183;-75
2022/02/14 18:19:55;;;;;;;7.10;4.90;;;;;;;10.75;60.93;99801.25;4999220;28;20254;-74
2022/02/14 18:22:20;;;;;;;8.63;6.70;;;;;;;10.79;60.15;99800.34;4999026;28;20525;-72
2022/02/14 18:24:46;;;;;;;9.43;5.87;;;;;;;10.73;60.34;99805.63;4998700;28;20180;-75
2022/02/14 18:27:12;;;;;;;5.03;4.53;;;;;;;10.65;60.30;99806.53;4998643;28;20172;-72
2022/02/14 18:29:37;;;;;;;7.27;6.20;;;;;;;11.04;59.54;99815.84;4999053;28;20424;-76
2022/02/14 18:32:04;;;;;;;7.00;5.40;;;;;;;10.97;59.92;99806.31;4998937;28;20183;-76
2022/02/14 18:34:29;;;;;;;6.13;4.90;;;;;;;10.52;61.03;99819.63;4981354;28;20612;-80
2022/02/14 18:36:54;;;;;;;7.37;6.37;;;;;;;11.19;58.98;99808.75;4998942;28;20416;-75